createdAt,value
2018-02-21T00:01:53.681Z,101315.77
2018-02-21T00:04:22.619Z,101307.95
2018-02-21T00:06:51.673Z,101312.66
2018-02-21T00:09:20.889Z,101309.40
2018-02-21T00:11:49.019Z,101308.33
2018-02-21T00:14:17.524Z,101306.43
2018-02-21T00:16:46.790Z,101303.16
2018-02-21T00:19:15.668Z,101302.09
2018-02-21T00:21:44.692Z,101300.61
2018-02-21T00:24:13.623Z,101293.16
2018-02-21T00:26:42.627Z,101293.47
2018-02-21T00:29:11.700Z,101297.64
2018-02-21T00:31:40.684Z,101296.18
2018-02-21T00:34:09.808Z,101295.61
2018-02-21T00:36:38.711Z,101286.14
2018-02-21T00:39:07.710Z,101290.20
2018-02-21T00:41:36.807Z,101291.94
2018-02-21T00:45:14.492Z,101276.50
2018-02-21T00:47:43.707Z,101281.74
2018-02-21T00:50:12.651Z,101275.64
2018-02-21T00:53:12.541Z,101276.98
2018-02-21T00:55:41.542Z,101274.34
2018-02-21T00:58:10.785Z,101283.42
2018-02-21T01:00:39.771Z,101272.09
2018-02-21T01:03:08.864Z,101266.83
2018-02-21T01:05:38.169Z,101277.36
2018-02-21T01:08:07.054Z,101273.31
2018-02-21T01:13:10.372Z,101274.66
2018-02-21T01:15:39.675Z,101273.04
2018-02-21T01:18:08.700Z,101274.92
2018-02-21T01:22:26.337Z,101273.72
2018-02-21T01:24:55.805Z,101273.42
2018-02-21T01:28:44.680Z,101269.52
2018-02-21T01:32:11.827Z,101259.25
2018-02-21T01:34:40.780Z,101263.69
2018-02-21T01:37:09.725Z,101257.98
2018-02-21T01:39:38.652Z,101260.97
2018-02-21T01:42:07.736Z,101260.23
2018-02-21T01:44:36.659Z,101264.72
2018-02-21T01:47:05.771Z,101269.59
2018-02-21T01:49:34.692Z,101268.35
2018-02-21T01:52:03.784Z,101269.69
2018-02-21T01:54:33.329Z,101267.81
2018-02-21T01:57:02.530Z,101252.67
2018-02-21T02:01:51.676Z,101251.38
2018-02-21T02:04:20.668Z,101256.66
2018-02-21T02:06:49.657Z,101247.17
2018-02-21T02:09:18.667Z,101249.47
2018-02-21T02:11:47.700Z,101255.44
2018-02-21T02:16:14.778Z,101253.16
2018-02-21T02:18:43.680Z,101256.80
2018-02-21T02:21:12.692Z,101247.09
2018-02-21T02:23:41.667Z,101251.97
2018-02-21T02:29:06.532Z,101233.58
2018-02-21T02:31:35.768Z,101248.56
2018-02-21T02:34:04.706Z,101236.80
2018-02-21T02:36:34.434Z,101239.23
2018-02-21T02:41:47.671Z,101229.61
2018-02-21T02:44:16.687Z,101230.84
2018-02-21T02:46:45.708Z,101216.37
2018-02-21T02:49:14.872Z,101223.25
2018-02-21T02:51:43.795Z,101223.28
2018-02-21T02:54:12.758Z,101234.21
2018-02-21T02:56:42.066Z,101227.61
2018-02-21T03:00:47.895Z,101227.33
2018-02-21T03:03:16.012Z,101232.73
2018-02-21T03:05:44.670Z,101234.21
2018-02-21T03:09:30.684Z,101238.83
2018-02-21T03:20:26.756Z,101228.42
2018-02-21T03:28:12.790Z,101227.20
2018-02-21T03:33:00.201Z,101228.92
2018-02-21T03:35:29.335Z,101223.33
2018-02-21T03:37:58.606Z,101222.80
2018-02-21T03:40:27.643Z,101219.70
2018-02-21T03:42:56.705Z,101223.21
2018-02-21T03:45:25.762Z,101221.04
2018-02-21T03:47:54.797Z,101228.88
2018-02-21T03:50:23.775Z,101229.83
2018-02-21T03:52:52.692Z,101228.08
2018-02-21T03:55:21.605Z,101228.27
2018-02-21T03:57:50.871Z,101226.17
2018-02-21T04:00:19.665Z,101223.26
2018-02-21T04:02:48.872Z,101219.47
2018-02-21T04:05:17.783Z,101224.61
2018-02-21T04:07:46.647Z,101219.89
2018-02-21T04:11:20.674Z,101219.77
2018-02-21T04:13:49.688Z,101215.05
2018-02-21T04:16:18.774Z,101218.83
2018-02-21T04:18:47.639Z,101212.34
2018-02-21T04:21:16.787Z,101218.97
2018-02-21T04:23:45.716Z,101216.12
2018-02-21T04:26:14.760Z,101221.11
2018-02-21T04:28:43.721Z,101215.58
2018-02-21T04:32:00.729Z,101216.22
2018-02-21T04:34:30.107Z,101214.16
2018-02-21T04:36:59.668Z,101211.34
2018-02-21T04:40:29.663Z,101207.24
2018-02-21T04:42:58.643Z,101209.39
2018-02-21T04:45:27.765Z,101202.38
2018-02-21T04:47:56.753Z,101203.59
2018-02-21T04:52:44.347Z,101207.70
2018-02-21T04:55:14.704Z,101214.69
2018-02-21T04:57:49.576Z,101212.53
2018-02-21T05:00:19.643Z,101214.27
2018-02-21T05:02:48.688Z,101211.98
2018-02-21T05:05:17.627Z,101217.25
2018-02-21T05:07:46.629Z,101220.02
2018-02-21T05:10:15.886Z,101212.72
2018-02-21T05:12:44.863Z,101215.44
2018-02-21T05:15:13.707Z,101215.14
2018-02-21T05:17:42.615Z,101224.91
2018-02-21T05:20:11.697Z,101230.45
2018-02-21T05:22:40.802Z,101229.60
2018-02-21T05:25:09.709Z,101229.87
2018-02-21T05:27:38.780Z,101236.78
2018-02-21T05:30:07.779Z,101236.98
2018-02-21T05:32:36.649Z,101233.87
2018-02-21T05:35:05.631Z,101224.56
2018-02-21T05:37:34.617Z,101232.80
2018-02-21T05:40:03.697Z,101226.63
2018-02-21T05:42:32.654Z,101227.45
2018-02-21T05:45:01.696Z,101225.97
2018-02-21T05:51:34.870Z,101226.09
2018-02-21T05:55:30.625Z,101225.69
2018-02-21T05:57:58.803Z,101223.95
2018-02-21T06:02:15.611Z,101223.56
2018-02-21T06:07:08.505Z,101216.39
2018-02-21T06:12:22.754Z,101222.51
2018-02-21T06:14:51.729Z,101223.17
2018-02-21T06:17:20.786Z,101229.00
2018-02-21T06:20:32.616Z,101234.67
2018-02-21T06:23:01.876Z,101237.78
2018-02-21T06:25:30.784Z,101230.76
2018-02-21T06:27:59.687Z,101225.45
2018-02-21T06:30:28.853Z,101227.50
2018-02-21T06:32:57.839Z,101233.05
2018-02-21T06:35:26.729Z,101235.75
2018-02-21T06:37:55.703Z,101227.76
2018-02-21T06:43:03.864Z,101227.63
2018-02-21T06:45:32.754Z,101224.63
2018-02-21T06:48:01.761Z,101227.61
2018-02-21T06:50:30.883Z,101231.38
2018-02-21T06:52:59.900Z,101230.53
2018-02-21T06:55:28.035Z,101227.84
2018-02-21T06:57:57.775Z,101234.21
2018-02-21T07:00:26.704Z,101218.38
2018-02-21T07:02:56.191Z,101221.62
2018-02-21T07:05:25.688Z,101222.33
2018-02-21T07:07:54.815Z,101226.52
2018-02-21T07:10:23.644Z,101232.22
2018-02-21T07:12:52.681Z,101232.73
2018-02-21T07:15:24.660Z,101233.43
2018-02-21T07:17:53.612Z,101227.22
2018-02-21T07:20:22.676Z,101226.81
2018-02-21T07:22:51.804Z,101236.39
2018-02-21T07:25:20.766Z,101243.95
2018-02-21T07:27:49.615Z,101243.43
2018-02-21T07:30:18.728Z,101241.80
2018-02-21T07:32:47.641Z,101244.80
2018-02-21T07:35:16.608Z,101240.47
2018-02-21T07:37:45.616Z,101245.86
2018-02-21T07:40:14.606Z,101237.50
2018-02-21T07:43:09.728Z,101243.30
2018-02-21T07:45:38.693Z,101240.45
2018-02-21T07:48:07.592Z,101235.19
2018-02-21T07:50:36.727Z,101233.69
2018-02-21T07:53:05.657Z,101234.38
2018-02-21T07:56:12.775Z,101239.48
2018-02-21T07:58:41.682Z,101225.72
2018-02-21T08:01:10.749Z,101234.92
2018-02-21T08:03:39.871Z,101231.39
2018-02-21T08:06:08.629Z,101239.38
2018-02-21T08:08:37.724Z,101231.81
2018-02-21T08:11:07.183Z,101226.66
2018-02-21T08:13:36.770Z,101228.68
2018-02-21T08:16:05.664Z,101223.02
2018-02-21T08:18:34.775Z,101230.61
2018-02-21T08:21:03.759Z,101228.05
2018-02-21T08:23:32.677Z,101232.38
2018-02-21T08:26:01.695Z,101228.17
2018-02-21T08:28:30.800Z,101236.02
2018-02-21T08:30:59.700Z,101237.91
2018-02-21T08:33:28.684Z,101227.08
2018-02-21T08:35:58.507Z,101231.39
2018-02-21T08:38:27.543Z,101228.16
2018-02-21T08:40:56.677Z,101235.58
2018-02-21T08:43:25.642Z,101240.72
2018-02-21T08:45:54.739Z,101238.95
2018-02-21T08:51:05.234Z,101237.86
2018-02-21T08:53:53.459Z,101231.26
2018-02-21T08:56:22.539Z,101237.20
2018-02-21T08:58:51.656Z,101232.30
2018-02-21T09:01:20.945Z,101229.11
2018-02-21T09:03:49.627Z,101232.73
2018-02-21T09:06:18.684Z,101224.52
2018-02-21T09:08:47.655Z,101225.88
2018-02-21T09:11:16.775Z,101231.81
2018-02-21T09:13:45.669Z,101244.55
2018-02-21T09:16:14.656Z,101240.89
2018-02-21T09:18:43.651Z,101238.98
2018-02-21T09:21:13.478Z,101236.17
2018-02-21T09:23:42.456Z,101229.41
2018-02-21T09:26:11.442Z,101234.14
2018-02-21T09:28:40.545Z,101227.38
2018-02-21T09:31:10.647Z,101232.23
2018-02-21T09:33:39.648Z,101233.87
2018-02-21T09:36:08.779Z,101230.89
2018-02-21T09:38:37.724Z,101231.59
2018-02-21T09:41:06.795Z,101233.06
2018-02-21T09:43:35.689Z,101233.87
2018-02-21T09:46:04.717Z,101239.95
2018-02-21T09:48:33.672Z,101230.08
2018-02-21T09:51:02.708Z,101227.11
2018-02-21T09:53:31.695Z,101217.64
2018-02-21T09:56:00.782Z,101213.13
2018-02-21T09:58:29.771Z,101209.22
2018-02-21T10:00:59.720Z,101210.83
2018-02-21T10:03:28.751Z,101220.69
2018-02-21T10:07:56.736Z,101226.69
2018-02-21T10:10:25.908Z,101222.51
2018-02-21T10:12:54.588Z,101220.88
2018-02-21T10:15:23.804Z,101217.09
2018-02-21T10:17:52.696Z,101218.31
2018-02-21T10:20:21.725Z,101208.99
2018-02-21T10:22:50.693Z,101198.98
2018-02-21T10:25:19.765Z,101203.17
2018-02-21T10:27:48.635Z,101207.91
2018-02-21T10:30:17.719Z,101198.44
2018-02-21T10:34:10.588Z,101203.16
2018-02-21T10:36:39.672Z,101192.08
2018-02-21T10:39:08.748Z,101193.04
2018-02-21T10:41:37.688Z,101196.54
2018-02-21T10:44:06.654Z,101199.13
2018-02-21T10:46:35.787Z,101193.84
2018-02-21T10:49:04.624Z,101197.63
2018-02-21T10:51:33.920Z,101193.83
2018-02-21T10:54:02.079Z,101190.06
2018-02-21T10:56:31.619Z,101192.48
2018-02-21T10:59:01.728Z,101192.87
2018-02-21T11:01:30.725Z,101189.34
2018-02-21T11:03:59.631Z,101191.13
2018-02-21T11:06:29.724Z,101189.51
2018-02-21T11:08:58.692Z,101187.89
2018-02-21T11:11:27.729Z,101187.59
2018-02-21T11:13:56.661Z,101190.84
2018-02-21T11:16:25.736Z,101190.59
2018-02-21T11:18:54.812Z,101191.80
2018-02-21T11:21:23.685Z,101192.21
2018-02-21T11:23:52.616Z,101186.66
2018-02-21T11:26:21.760Z,101193.83
2018-02-21T11:28:50.630Z,101197.48
2018-02-21T11:31:19.773Z,101194.53
2018-02-21T11:33:48.777Z,101185.98
2018-02-21T11:36:17.615Z,101183.83
2018-02-21T11:38:46.752Z,101182.08
2018-02-21T11:41:15.772Z,101186.52
2018-02-21T11:43:44.692Z,101179.90
2018-02-21T11:46:13.712Z,101180.19
2018-02-21T11:48:42.676Z,101183.84
2018-02-21T11:51:11.896Z,101182.48
2018-02-21T11:53:40.539Z,101175.30
2018-02-21T11:56:09.611Z,101178.30
2018-02-21T11:59:30.519Z,101174.77
2018-02-21T12:01:59.704Z,101177.06
2018-02-21T12:04:28.766Z,101164.89
2018-02-21T12:06:57.684Z,101155.27
2018-02-21T12:09:26.749Z,101158.38
2018-02-21T12:11:55.879Z,101155.56
2018-02-21T12:17:10.676Z,101159.88
2018-02-21T12:19:39.659Z,101158.41
2018-02-21T12:22:08.787Z,101152.31
2018-02-21T12:24:37.672Z,101156.77
2018-02-21T12:27:06.705Z,101157.83
2018-02-21T12:29:35.911Z,101159.47
2018-02-21T12:32:04.007Z,101160.16
2018-02-21T12:34:32.566Z,101160.70
2018-02-21T12:37:01.673Z,101163.41
2018-02-21T12:39:34.910Z,101160.70
2018-02-21T12:42:05.169Z,101165.29
2018-02-21T12:44:36.307Z,101153.91
2018-02-21T12:47:05.695Z,101149.05
2018-02-21T12:49:34.704Z,101146.64
2018-02-21T12:54:43.657Z,101156.77
2018-02-21T12:59:30.748Z,101156.11
2018-02-21T13:01:59.732Z,101148.80
2018-02-21T13:04:28.737Z,101146.34
2018-02-21T13:06:57.739Z,101140.94
2018-02-21T13:09:26.871Z,101133.22
2018-02-21T13:11:55.764Z,101144.45
2018-02-21T13:14:26.688Z,101152.05
2018-02-21T13:16:55.726Z,101149.05
2018-02-21T13:19:24.734Z,101153.00
2018-02-21T13:21:54.484Z,101146.61
2018-02-21T13:24:23.751Z,101149.60
2018-02-21T13:26:52.878Z,101140.79
2018-02-21T13:30:01.749Z,101149.16
2018-02-21T13:32:30.809Z,101141.59
2018-02-21T13:34:59.770Z,101137.53
2018-02-21T13:37:28.736Z,101141.77
2018-02-21T13:41:56.726Z,101149.88
2018-02-21T13:44:25.755Z,101152.03
2018-02-21T13:46:55.172Z,101150.28
2018-02-21T13:49:24.728Z,101150.02
2018-02-21T13:51:53.710Z,101158.66
2018-02-21T13:54:22.825Z,101142.97
2018-02-21T13:56:51.756Z,101152.59
2018-02-21T13:59:20.679Z,101145.97
2018-02-21T14:01:50.373Z,101142.69
2018-02-21T14:04:19.514Z,101146.23
2018-02-21T14:06:48.879Z,101137.42
2018-02-21T14:11:20.686Z,101135.00
2018-02-21T14:13:49.670Z,101139.20
2018-02-21T14:16:18.807Z,101138.50
2018-02-21T14:18:47.637Z,101133.25
2018-02-21T14:26:20.719Z,101140.12
2018-02-21T14:28:49.777Z,101137.69
2018-02-21T14:31:18.771Z,101142.44
2018-02-21T14:33:47.824Z,101139.47
2018-02-21T14:36:16.776Z,101139.73
2018-02-21T14:38:45.768Z,101143.94
2018-02-21T14:41:15.496Z,101150.00
2018-02-21T14:43:44.723Z,101145.94
2018-02-21T14:46:13.695Z,101145.13
2018-02-21T14:48:42.675Z,101139.61
2018-02-21T14:51:11.700Z,101136.89
2018-02-21T14:53:41.213Z,101132.41
2018-02-21T14:56:10.341Z,101134.31
2018-02-21T14:58:39.297Z,101134.84
2018-02-21T15:01:08.787Z,101143.91
2018-02-21T15:03:37.887Z,101141.34
2018-02-21T15:06:06.555Z,101142.02
2018-02-21T15:08:35.679Z,101147.16
2018-02-21T15:11:04.663Z,101138.22
2018-02-21T15:13:33.693Z,101150.95
2018-02-21T15:16:02.650Z,101141.20
2018-02-21T15:18:31.628Z,101149.86
2018-02-21T15:21:00.685Z,101145.95
2018-02-21T15:23:58.676Z,101143.66
2018-02-21T15:26:27.588Z,101143.27
2018-02-21T15:28:56.879Z,101138.50
2018-02-21T15:31:25.773Z,101136.49
2018-02-21T15:33:54.680Z,101135.14
2018-02-21T15:36:23.679Z,101127.84
2018-02-21T15:38:52.614Z,101130.14
2018-02-21T15:41:21.994Z,101130.94
2018-02-21T15:43:50.920Z,101141.75
2018-02-21T15:46:19.146Z,101147.02
2018-02-21T15:48:48.355Z,101149.99
2018-02-21T15:51:17.532Z,101142.16
2018-02-21T15:53:46.416Z,101143.91
2018-02-21T15:56:15.750Z,101144.56
2018-02-21T15:58:44.843Z,101149.81
2018-02-21T16:01:14.525Z,101139.84
2018-02-21T16:03:43.885Z,101135.89
2018-02-21T16:06:13.150Z,101144.81
2018-02-21T16:08:41.848Z,101146.56
2018-02-21T16:11:10.878Z,101149.81
2018-02-21T16:13:39.139Z,101145.52
2018-02-21T16:16:08.479Z,101147.41
2018-02-21T16:18:37.570Z,101147.91
2018-02-21T16:21:06.732Z,101155.76
2018-02-21T16:23:35.780Z,101154.12
2018-02-21T16:26:05.585Z,101158.58
2018-02-21T16:28:34.631Z,101159.03
2018-02-21T16:32:36.820Z,101160.23
2018-02-21T16:35:05.733Z,101171.08
2018-02-21T16:37:34.836Z,101173.13
2018-02-21T16:40:03.765Z,101172.70
2018-02-21T16:43:09.679Z,101170.17
2018-02-21T16:48:12.621Z,101168.68
2018-02-21T16:50:42.648Z,101167.57
2018-02-21T16:53:11.741Z,101167.01
2018-02-21T16:55:40.759Z,101157.42
2018-02-21T16:58:09.717Z,101150.52
2018-02-21T17:00:38.872Z,101159.89
2018-02-21T17:03:07.792Z,101160.30
2018-02-21T17:05:36.680Z,101163.23
2018-02-21T17:08:05.731Z,101168.52
2018-02-21T17:10:34.880Z,101168.78
2018-02-21T17:13:03.671Z,101173.52
2018-02-21T17:15:32.599Z,101176.88
2018-02-21T17:18:01.685Z,101173.77
2018-02-21T17:20:30.832Z,101173.89
2018-02-21T17:22:59.625Z,101174.44
2018-02-21T17:25:28.684Z,101179.01
2018-02-21T17:27:57.806Z,101170.26
2018-02-21T17:30:26.884Z,101166.91
2018-02-21T17:32:56.239Z,101170.02
2018-02-21T17:35:26.505Z,101177.45
2018-02-21T17:37:55.614Z,101173.41
2018-02-21T17:40:24.640Z,101166.23
2018-02-21T17:42:53.761Z,101172.84
2018-02-21T17:45:22.672Z,101170.83
2018-02-21T17:47:51.803Z,101173.94
2018-02-21T17:50:20.843Z,101176.63
2018-02-21T17:52:49.692Z,101177.58
2018-02-21T17:55:18.611Z,101171.08
2018-02-21T17:57:47.758Z,101168.11
2018-02-21T18:00:16.766Z,101170.66
2018-02-21T18:02:45.664Z,101184.16
2018-02-21T18:05:14.637Z,101187.67
2018-02-21T18:07:43.673Z,101188.06
2018-02-21T18:10:12.951Z,101195.53
2018-02-21T18:12:41.160Z,101192.28
2018-02-21T18:15:09.852Z,101201.48
2018-02-21T18:17:38.803Z,101203.81
2018-02-21T18:20:08.261Z,101211.30
2018-02-21T18:22:37.516Z,101211.42
2018-02-21T18:25:06.630Z,101217.80
2018-02-21T18:27:35.891Z,101209.68
2018-02-21T18:30:04.040Z,101206.70
2018-02-21T18:33:32.509Z,101208.11
2018-02-21T18:36:01.756Z,101205.02
2018-02-21T18:38:30.716Z,101212.45
2018-02-21T18:40:59.812Z,101215.98
2018-02-21T18:45:06.626Z,101221.98
2018-02-21T18:47:35.720Z,101225.36
2018-02-21T18:50:04.643Z,101216.27
2018-02-21T18:52:33.657Z,101209.52
2018-02-21T18:55:02.592Z,101208.68
2018-02-21T18:57:31.688Z,101215.42
2018-02-21T19:00:00.728Z,101216.36
2018-02-21T19:02:29.663Z,101215.55
2018-02-21T19:06:27.677Z,101208.75
2018-02-21T19:08:56.752Z,101210.81
2018-02-21T19:11:25.684Z,101210.00
2018-02-21T19:16:11.495Z,101203.92
2018-02-21T19:18:40.680Z,101205.48
2018-02-21T19:21:09.752Z,101201.72
2018-02-21T19:26:25.580Z,101205.08
2018-02-21T19:28:54.560Z,101205.48
2018-02-21T19:31:23.712Z,101202.13
2018-02-21T19:33:52.716Z,101195.93
2018-02-21T19:37:58.539Z,101195.28
2018-02-21T19:40:27.661Z,101193.42
2018-02-21T19:42:56.681Z,101194.62
2018-02-21T19:45:25.610Z,101190.29
2018-02-21T19:47:54.604Z,101182.06
2018-02-21T19:50:23.744Z,101184.62
2018-02-21T19:52:52.800Z,101189.77
2018-02-21T19:55:21.706Z,101178.80
2018-02-21T19:57:50.767Z,101182.03
2018-02-21T20:00:19.692Z,101178.66
2018-02-21T20:02:48.678Z,101182.58
2018-02-21T20:05:17.635Z,101177.98
2018-02-21T20:07:46.673Z,101173.66
2018-02-21T20:10:16.763Z,101167.41
2018-02-21T20:13:36.640Z,101163.36
2018-02-21T20:16:05.790Z,101174.85
2018-02-21T20:18:34.699Z,101175.80
2018-02-21T20:21:04.218Z,101175.50
2018-02-21T20:23:33.595Z,101175.36
2018-02-21T20:26:02.687Z,101182.66
2018-02-21T20:28:32.176Z,101181.46
2018-02-21T20:31:01.263Z,101183.78
2018-02-21T20:33:30.468Z,101180.83
2018-02-21T20:38:02.608Z,101178.12
2018-02-21T20:40:31.657Z,101184.09
2018-02-21T20:45:17.704Z,101179.08
2018-02-21T20:47:46.756Z,101175.83
2018-02-21T20:50:15.758Z,101167.61
2018-02-21T20:52:44.684Z,101169.88
2018-02-21T20:55:13.791Z,101168.41
2018-02-21T20:57:42.725Z,101173.94
2018-02-21T21:00:11.795Z,101166.25
2018-02-21T21:02:40.771Z,101166.78
2018-02-21T21:05:09.692Z,101170.83
2018-02-21T21:07:38.751Z,101168.23
2018-02-21T21:10:07.703Z,101158.91
2018-02-21T21:13:46.572Z,101156.06
2018-02-21T21:16:15.756Z,101154.31
2018-02-21T21:20:57.693Z,101165.27
2018-02-21T21:23:26.700Z,101161.21
2018-02-21T21:25:55.707Z,101165.27
2018-02-21T21:28:24.955Z,101166.91
2018-02-21T21:30:53.560Z,101167.41
2018-02-21T21:33:23.587Z,101166.34
2018-02-21T21:35:52.684Z,101162.84
2018-02-21T21:38:21.876Z,101164.17
2018-02-21T21:42:16.736Z,101172.70
2018-02-21T21:44:45.880Z,101177.47
2018-02-21T21:51:23.436Z,101179.08
2018-02-21T21:53:52.692Z,101174.21
2018-02-21T21:59:07.488Z,101172.36
2018-02-21T22:01:36.787Z,101166.13
2018-02-21T22:04:05.752Z,101168.42
2018-02-21T22:06:34.706Z,101165.21
2018-02-21T22:09:03.588Z,101168.97
2018-02-21T22:11:32.742Z,101169.26
2018-02-21T22:14:01.613Z,101170.74
2018-02-21T22:16:30.739Z,101173.45
2018-02-21T22:18:59.663Z,101171.19
2018-02-21T22:21:28.616Z,101172.36
2018-02-21T22:23:57.684Z,101168.59
2018-02-21T22:26:26.607Z,101164.78
2018-02-21T22:28:55.645Z,101166.97
2018-02-21T22:31:24.691Z,101160.86
2018-02-21T22:33:53.698Z,101152.89
2018-02-21T22:36:22.716Z,101160.19
2018-02-21T22:38:51.727Z,101157.75
2018-02-21T22:41:20.892Z,101156.42
2018-02-21T22:43:49.536Z,101160.48
2018-02-21T22:46:18.620Z,101154.43
2018-02-21T22:48:47.592Z,101156.48
2018-02-21T22:51:16.752Z,101156.33
2018-02-21T22:53:45.779Z,101157.53
2018-02-21T22:56:14.664Z,101153.58
2018-02-21T22:58:43.639Z,101148.55
2018-02-21T23:01:12.607Z,101156.55
2018-02-21T23:03:41.696Z,101158.44
2018-02-21T23:06:10.799Z,101154.78
2018-02-21T23:08:39.677Z,101156.39
2018-02-21T23:11:08.676Z,101155.84
2018-02-21T23:13:37.783Z,101151.80
2018-02-21T23:16:06.752Z,101152.89
2018-02-21T23:18:35.640Z,101151.13
2018-02-21T23:21:04.752Z,101140.45
2018-02-21T23:23:33.684Z,101144.09
2018-02-21T23:26:02.672Z,101137.45
2018-02-21T23:28:31.689Z,101137.46
2018-02-21T23:31:01.064Z,101143.57
2018-02-21T23:33:29.630Z,101139.10
2018-02-21T23:35:58.634Z,101136.53
2018-02-21T23:38:27.712Z,101137.47
2018-02-21T23:40:56.751Z,101130.47
2018-02-21T23:43:25.651Z,101126.67
2018-02-21T23:45:54.655Z,101133.28
2018-02-21T23:48:23.668Z,101130.47
2018-02-21T23:50:52.663Z,101133.84
2018-02-21T23:53:21.634Z,101131.55
2018-02-21T23:55:50.652Z,101128.59
2018-02-21T23:58:19.660Z,101129.39
